Nan Lin Wan — 9V3641 — position and weather

sailwx.info

Track history (hours):
 
Tides and Currents Weather Stations Pressure Air Temp Water Temp Dewpoint Dewpoint Depression Visibility Wind Speed Wind Dir Waves Ship Positions

Nan Lin Wan

Last reported at 2018-Jun-13 19:13 UTC. Time now 2018-Jun-21 04:15 UTC.
Position N 31°24' E 032°17'.

Length 249 m; draft 14.2 m.

Type: Tanker. MMSI: 563015300.

Date/timePositionNaut miles runAvg speedWind from/ knotsBaromVisibWave heightAir tempDewpointWater temp
2018-Jun-13 19:13N 31°24' E 032°17'0 1.8
2018-Jun-13 19:00N 31°24' E 032°18'1 1.8
2018-Jun-13 18:29N 31°24' E 032°17'  
2018-Jun-10 08:00N 36°49' E 012°54'713.1
2018-Jun-10 07:30N 36°51' E 012°47'713.5
2018-Jun-10 06:59N 36°53' E 012°39'613.4
2018-Jun-10 06:30N 36°55' E 012°31'713.5
2018-Jun-10 06:00N 36°58' E 012°23'29612.9
2018-Jun-09 07:06N 37°28' E 006°13'213.3
2018-Jun-09 06:58N 37°28' E 006°11'1313.3
2018-Jun-09 05:59N 37°26' E 005°55'613.3
2018-Jun-09 05:30N 37°25' E 005°47'713.3
2018-Jun-09 04:58N 37°24' E 005°38'613.2
2018-Jun-09 04:30N 37°23' E 005°30'713.1
2018-Jun-09 04:00N 37°22' E 005°22'713.2
2018-Jun-09 03:30N 37°21' E 005°14'713.4
2018-Jun-09 03:00N 37°20' E 005°06'713.4
2018-Jun-09 02:30N 37°19' E 004°58'713.6
2018-Jun-09 02:00N 37°18' E 004°49'713.7
2018-Jun-09 01:30N 37°16' E 004°40'713.6
2018-Jun-09 01:00N 37°15' E 004°32'713.6
2018-Jun-09 00:30N 37°14' E 004°24'713.3
2018-Jun-09 00:00N 37°13' E 004°15'713.2
2018-Jun-08 23:30N 37°12' E 004°07'713.2
2018-Jun-08 23:00N 37°11' E 003°59'713.2
2018-Jun-08 22:30N 37°10' E 003°51'613.0
2018-Jun-08 22:00N 37°09' E 003°43'712.9
2018-Jun-08 21:30N 37°08' E 003°35'812.8
2018-Jun-08 20:54N 37°06' E 003°25'512.4
2018-Jun-08 20:30N 37°05' E 003°19'612.0
2018-Jun-08 20:00N 37°04' E 003°12'612.1
2018-Jun-08 19:30N 37°03' E 003°04'612.4
2018-Jun-08 19:00N 37°03' E 002°56'613.0
2018-Jun-08 18:30N 37°02' E 002°49'713.1
2018-Jun-08 18:00N 37°00' E 002°41'813.5
2018-Jun-08 17:25N 36°59' E 002°31'613.9
2018-Jun-08 17:00N 36°59' E 002°23'714.2
2018-Jun-08 16:30N 36°58' E 002°15'813.7
2018-Jun-08 15:56N 36°57' E 002°05'612.0
2018-Jun-08 15:27N 36°57' E 001°58'2 3.6
2018-Jun-08 15:00N 36°57' E 001°56'0 0.7
2018-Jun-08 14:28N 36°57' E 001°56'0 0.6
2018-Jun-08 14:00N 36°56' E 001°55'1 1.3
2018-Jun-08 13:30N 36°56' E 001°56'3 5.3
2018-Jun-08 13:00N 36°54' E 001°53'612.7
2018-Jun-08 12:30N 36°53' E 001°45'713.7
2018-Jun-08 12:00N 36°52' E 001°37'713.8
2018-Jun-08 11:28N 36°51' E 001°28'714.1
2018-Jun-08 11:00N 36°50' E 001°19'713.9
2018-Jun-08 10:30N 36°48' E 001°11'713.9
2018-Jun-08 10:00N 36°47' E 001°02'713.9
2018-Jun-08 09:30N 36°46' E 000°54'713.8
2018-Jun-08 09:00N 36°45' E 000°45'813.5
2018-Jun-08 08:23N 36°43' E 000°35'713.7
2018-Jun-08 07:54N 36°42' E 000°27'613.9
2018-Jun-08 07:30N 36°41' E 000°20'713.9
2018-Jun-08 07:00N 36°40' E 000°12'714.0
2018-Jun-08 06:29N 36°39' E 000°03'1114.3
2018-Jun-08 05:43N 36°37' W 000°11'314.4
2018-Jun-08 05:30N 36°37' W 000°15'814.1
2018-Jun-08 04:58N 36°35' W 000°24'613.4
2018-Jun-08 04:30N 36°34' W 000°31'613.0
2018-Jun-08 04:00N 36°33' W 000°39'612.8
2018-Jun-08 03:30N 36°32' W 000°47'813.0
2018-Jun-08 02:55N 36°31' W 000°57'713.6
2018-Jun-08 02:24N 36°30' W 001°05'713.8
2018-Jun-08 01:52N 36°29' W 001°14'513.5
2018-Jun-08 01:29N 36°28' W 001°21'713.7
2018-Jun-08 00:57N 36°26' W 001°29'813.9
2018-Jun-08 00:25N 36°25' W 001°39'17314.0
2018-Jun-07 12:01N 36°01' W 005°12'015.6
2018-Jun-07 12:00N 36°01' W 005°12'815.2
2018-Jun-07 11:30N 35°59' W 005°21'714.6
2018-Jun-07 11:00N 35°57' W 005°30'  
2018-Jun-04 16:15N 36°28' W 023°38'413.1
2018-Jun-04 15:57N 36°28' W 023°43'612.8
2018-Jun-04 15:30N 36°28' W 023°50'613.0
2018-Jun-04 15:00N 36°28' W 023°58'612.8
2018-Jun-04 14:30N 36°28' W 024°06'713.0
2018-Jun-04 14:00N 36°27' W 024°14'612.7
2018-Jun-04 13:30N 36°27' W 024°22'612.7
2018-Jun-04 13:00N 36°27' W 024°30'612.6
2018-Jun-04 12:30N 36°27' W 024°38'612.8
2018-Jun-04 12:00N 36°27' W 024°46'613.0
2018-Jun-04 11:30N 36°27' W 024°54'612.9
2018-Jun-04 11:01N 36°27' W 025°02'612.9
2018-Jun-04 10:30N 36°26' W 025°10'612.8
2018-Jun-04 10:00N 36°26' W 025°18'612.6
2018-Jun-04 09:31N 36°26' W 025°25'612.9
2018-Jun-04 09:00N 36°26' W 025°33'612.9
2018-Jun-04 08:30N 36°26' W 025°42'713.2
2018-Jun-04 08:00N 36°26' W 025°50'613.0
2018-Jun-04 07:30N 36°25' W 025°58'713.1
2018-Jun-04 07:00N 36°25' W 026°06'612.9
2018-Jun-04 06:30N 36°25' W 026°14'713.1
2018-Jun-04 05:58N 36°25' W 026°23'713.5
2018-Jun-04 05:28N 36°25' W 026°31'1213.4
2018-Jun-04 04:36N 36°25' W 026°46'2013.5
2018-Jun-04 03:07N 36°24' W 027°10'413.3
2018-Jun-04 02:47N 36°24' W 027°16'1413.4
2018-Jun-04 01:43N 36°24' W 027°34'312.9
2018-Jun-04 01:30N 36°24' W 027°37'713.1
2018-Jun-04 00:59N 36°23' W 027°45'613.3
2018-Jun-04 00:30N 36°23' W 027°53'713.7
2018-Jun-04 00:00N 36°23' W 028°02'1413.6
2018-Jun-03 22:58N 36°23' W 028°19'  
Track history (hours):
 
Tides and Currents Weather Stations Pressure Air Temp Water Temp Dewpoint Dewpoint Depression Visibility Wind Speed Wind Dir Waves Ship Positions

Nan Lin Wan

Last reported at 2018-Jun-13 19:13 UTC. Time now 2018-Jun-21 04:15 UTC.
Position N 31°24' E 032°17'.

Length 249 m; draft 14.2 m.

Type: Tanker. MMSI: 563015300.

Date/timePositionNaut miles runAvg speedWind from/ knotsBaromVisibWave heightAir tempDewpointWater temp
2018-Jun-13 19:13N 31°24' E 032°17'0 1.8
2018-Jun-13 19:00N 31°24' E 032°18'1 1.8
2018-Jun-13 18:29N 31°24' E 032°17'  
2018-Jun-10 08:00N 36°49' E 012°54'713.1
2018-Jun-10 07:30N 36°51' E 012°47'713.5
2018-Jun-10 06:59N 36°53' E 012°39'613.4
2018-Jun-10 06:30N 36°55' E 012°31'713.5
2018-Jun-10 06:00N 36°58' E 012°23'29612.9
2018-Jun-09 07:06N 37°28' E 006°13'213.3
2018-Jun-09 06:58N 37°28' E 006°11'1313.3
2018-Jun-09 05:59N 37°26' E 005°55'613.3
2018-Jun-09 05:30N 37°25' E 005°47'713.3
2018-Jun-09 04:58N 37°24' E 005°38'613.2
2018-Jun-09 04:30N 37°23' E 005°30'713.1
2018-Jun-09 04:00N 37°22' E 005°22'713.2
2018-Jun-09 03:30N 37°21' E 005°14'713.4
2018-Jun-09 03:00N 37°20' E 005°06'713.4
2018-Jun-09 02:30N 37°19' E 004°58'713.6
2018-Jun-09 02:00N 37°18' E 004°49'713.7
2018-Jun-09 01:30N 37°16' E 004°40'713.6
2018-Jun-09 01:00N 37°15' E 004°32'713.6
2018-Jun-09 00:30N 37°14' E 004°24'713.3
2018-Jun-09 00:00N 37°13' E 004°15'713.2
2018-Jun-08 23:30N 37°12' E 004°07'713.2
2018-Jun-08 23:00N 37°11' E 003°59'713.2
2018-Jun-08 22:30N 37°10' E 003°51'613.0
2018-Jun-08 22:00N 37°09' E 003°43'712.9
2018-Jun-08 21:30N 37°08' E 003°35'812.8
2018-Jun-08 20:54N 37°06' E 003°25'512.4
2018-Jun-08 20:30N 37°05' E 003°19'612.0
2018-Jun-08 20:00N 37°04' E 003°12'612.1
2018-Jun-08 19:30N 37°03' E 003°04'612.4
2018-Jun-08 19:00N 37°03' E 002°56'613.0
2018-Jun-08 18:30N 37°02' E 002°49'713.1
2018-Jun-08 18:00N 37°00' E 002°41'813.5
2018-Jun-08 17:25N 36°59' E 002°31'613.9
2018-Jun-08 17:00N 36°59' E 002°23'714.2
2018-Jun-08 16:30N 36°58' E 002°15'813.7
2018-Jun-08 15:56N 36°57' E 002°05'612.0
2018-Jun-08 15:27N 36°57' E 001°58'2 3.6
2018-Jun-08 15:00N 36°57' E 001°56'0 0.7
2018-Jun-08 14:28N 36°57' E 001°56'0 0.6
2018-Jun-08 14:00N 36°56' E 001°55'1 1.3
2018-Jun-08 13:30N 36°56' E 001°56'3 5.3
2018-Jun-08 13:00N 36°54' E 001°53'612.7
2018-Jun-08 12:30N 36°53' E 001°45'713.7
2018-Jun-08 12:00N 36°52' E 001°37'713.8
2018-Jun-08 11:28N 36°51' E 001°28'714.1
2018-Jun-08 11:00N 36°50' E 001°19'713.9
2018-Jun-08 10:30N 36°48' E 001°11'713.9
2018-Jun-08 10:00N 36°47' E 001°02'713.9
2018-Jun-08 09:30N 36°46' E 000°54'713.8
2018-Jun-08 09:00N 36°45' E 000°45'813.5
2018-Jun-08 08:23N 36°43' E 000°35'713.7
2018-Jun-08 07:54N 36°42' E 000°27'613.9
2018-Jun-08 07:30N 36°41' E 000°20'713.9
2018-Jun-08 07:00N 36°40' E 000°12'714.0
2018-Jun-08 06:29N 36°39' E 000°03'1114.3
2018-Jun-08 05:43N 36°37' W 000°11'314.4
2018-Jun-08 05:30N 36°37' W 000°15'814.1
2018-Jun-08 04:58N 36°35' W 000°24'613.4
2018-Jun-08 04:30N 36°34' W 000°31'613.0
2018-Jun-08 04:00N 36°33' W 000°39'612.8
2018-Jun-08 03:30N 36°32' W 000°47'813.0
2018-Jun-08 02:55N 36°31' W 000°57'713.6
2018-Jun-08 02:24N 36°30' W 001°05'713.8
2018-Jun-08 01:52N 36°29' W 001°14'513.5
2018-Jun-08 01:29N 36°28' W 001°21'713.7
2018-Jun-08 00:57N 36°26' W 001°29'813.9
2018-Jun-08 00:25N 36°25' W 001°39'17314.0
2018-Jun-07 12:01N 36°01' W 005°12'015.6
2018-Jun-07 12:00N 36°01' W 005°12'815.2
2018-Jun-07 11:30N 35°59' W 005°21'714.6
2018-Jun-07 11:00N 35°57' W 005°30'  
2018-Jun-04 16:15N 36°28' W 023°38'413.1
2018-Jun-04 15:57N 36°28' W 023°43'612.8
2018-Jun-04 15:30N 36°28' W 023°50'613.0
2018-Jun-04 15:00N 36°28' W 023°58'612.8
2018-Jun-04 14:30N 36°28' W 024°06'713.0
2018-Jun-04 14:00N 36°27' W 024°14'612.7
2018-Jun-04 13:30N 36°27' W 024°22'612.7
2018-Jun-04 13:00N 36°27' W 024°30'612.6
2018-Jun-04 12:30N 36°27' W 024°38'612.8
2018-Jun-04 12:00N 36°27' W 024°46'613.0
2018-Jun-04 11:30N 36°27' W 024°54'612.9
2018-Jun-04 11:01N 36°27' W 025°02'612.9
2018-Jun-04 10:30N 36°26' W 025°10'612.8
2018-Jun-04 10:00N 36°26' W 025°18'612.6
2018-Jun-04 09:31N 36°26' W 025°25'612.9
2018-Jun-04 09:00N 36°26' W 025°33'612.9
2018-Jun-04 08:30N 36°26' W 025°42'713.2
2018-Jun-04 08:00N 36°26' W 025°50'613.0
2018-Jun-04 07:30N 36°25' W 025°58'713.1
2018-Jun-04 07:00N 36°25' W 026°06'612.9
2018-Jun-04 06:30N 36°25' W 026°14'713.1
2018-Jun-04 05:58N 36°25' W 026°23'713.5
2018-Jun-04 05:28N 36°25' W 026°31'1213.4
2018-Jun-04 04:36N 36°25' W 026°46'2013.5
2018-Jun-04 03:07N 36°24' W 027°10'413.3
2018-Jun-04 02:47N 36°24' W 027°16'1413.4
2018-Jun-04 01:43N 36°24' W 027°34'312.9
2018-Jun-04 01:30N 36°24' W 027°37'713.1
2018-Jun-04 00:59N 36°23' W 027°45'613.3
2018-Jun-04 00:30N 36°23' W 027°53'713.7
2018-Jun-04 00:00N 36°23' W 028°02'1413.6
2018-Jun-03 22:58N 36°23' W 028°19'  

Dump ship's entire track history